createdAt,value
2019-03-25T00:00:45.008Z,1014.67
2019-03-25T00:01:45.085Z,1014.67
2019-03-25T00:02:44.990Z,1014.62
2019-03-25T00:03:44.998Z,1014.59
2019-03-25T00:04:44.962Z,1014.59
2019-03-25T00:05:45.011Z,1014.59
2019-03-25T00:06:44.935Z,1014.58
2019-03-25T00:07:44.953Z,1014.56
2019-03-25T00:08:44.913Z,1014.54
2019-03-25T00:09:44.935Z,1014.51
2019-03-25T00:10:44.894Z,1014.48
2019-03-25T00:11:44.950Z,1014.49
2019-03-25T00:12:44.881Z,1014.43
2019-03-25T00:13:45.020Z,1014.45
2019-03-25T00:14:44.848Z,1014.39
2019-03-25T00:15:44.874Z,1014.38
2019-03-25T00:16:44.827Z,1014.33
2019-03-25T00:17:44.919Z,1014.29
2019-03-25T00:18:44.804Z,1014.31
2019-03-25T00:19:44.902Z,1014.24
2019-03-25T00:20:44.786Z,1014.23
2019-03-25T00:21:44.813Z,1014.21
2019-03-25T00:22:44.761Z,1014.19
2019-03-25T00:23:45.777Z,1014.19
2019-03-25T00:24:44.755Z,1014.13
2019-03-25T00:25:53.750Z,1014.03
2019-03-25T00:26:44.720Z,1013.98
2019-03-25T00:27:59.325Z,1013.99
2019-03-25T00:28:44.718Z,1013.96
2019-03-25T00:29:46.711Z,1014.00
2019-03-25T00:30:44.677Z,1013.91
2019-03-25T00:31:44.677Z,1013.99
2019-03-25T00:32:44.655Z,1013.95
2019-03-25T00:33:44.722Z,1013.84
2019-03-25T00:34:44.634Z,1013.89
2019-03-25T00:35:44.704Z,1013.86
2019-03-25T00:36:44.614Z,1013.89
2019-03-25T00:37:44.616Z,1013.86
2019-03-25T00:38:44.603Z,1013.78
2019-03-25T00:39:44.629Z,1013.80
2019-03-25T00:40:44.566Z,1013.68
2019-03-25T00:41:44.646Z,1013.65
2019-03-25T00:42:44.544Z,1013.69
2019-03-25T00:43:44.602Z,1013.71
2019-03-25T00:44:44.524Z,1013.65
2019-03-25T00:45:44.568Z,1013.65
2019-03-25T00:46:44.504Z,1013.71
2019-03-25T00:47:44.582Z,1013.68
2019-03-25T00:48:44.493Z,1013.71
2019-03-25T00:49:44.494Z,1013.68
2019-03-25T00:50:44.457Z,1013.67
2019-03-25T00:51:44.508Z,1013.64
2019-03-25T00:52:44.444Z,1013.50
2019-03-25T00:53:44.558Z,1013.45
2019-03-25T00:54:49.848Z,1013.42
2019-03-25T00:55:45.458Z,1013.41
2019-03-25T00:56:44.394Z,1013.34
2019-03-25T00:57:44.447Z,1013.25
2019-03-25T00:58:44.392Z,1013.25
2019-03-25T00:59:44.463Z,1013.24
2019-03-25T01:00:44.349Z,1013.13
2019-03-25T01:01:44.372Z,1013.08
2019-03-25T01:02:44.326Z,1013.15
2019-03-25T01:03:44.420Z,1013.10
2019-03-25T01:04:44.310Z,1013.09
2019-03-25T01:05:44.401Z,1013.04
2019-03-25T01:06:44.283Z,1013.03
2019-03-25T01:07:44.315Z,1012.97
2019-03-25T01:08:44.274Z,1012.97
2019-03-25T01:09:53.235Z,1012.97
2019-03-25T01:10:44.238Z,1012.91
2019-03-25T01:11:49.396Z,1012.97
2019-03-25T01:12:44.217Z,1012.94
2019-03-25T01:13:49.298Z,1012.91
2019-03-25T01:14:44.196Z,1012.90
2019-03-25T01:15:46.209Z,1012.89
2019-03-25T01:16:44.174Z,1012.89
2019-03-25T01:17:45.202Z,1012.85
2019-03-25T01:18:44.165Z,1012.84
2019-03-25T01:19:44.187Z,1012.84
2019-03-25T01:20:44.131Z,1012.85
2019-03-25T01:21:44.201Z,1012.83
2019-03-25T01:22:44.109Z,1012.75
2019-03-25T01:23:44.162Z,1012.74
2019-03-25T01:24:44.087Z,1012.74
2019-03-25T01:25:44.125Z,1012.71
2019-03-25T01:26:44.066Z,1012.62
2019-03-25T01:27:44.139Z,1012.62
2019-03-25T01:28:44.058Z,1012.56
2019-03-25T01:29:44.053Z,1012.59
2019-03-25T01:30:44.022Z,1012.58
2019-03-25T01:31:44.069Z,1012.46
2019-03-25T01:32:44.005Z,1012.46
2019-03-25T01:33:44.113Z,1012.43
2019-03-25T01:34:43.979Z,1012.44
2019-03-25T01:35:43.989Z,1012.43
2019-03-25T01:36:43.956Z,1012.42
2019-03-25T01:37:44.002Z,1012.25
2019-03-25T01:38:43.949Z,1012.37
2019-03-25T01:39:44.017Z,1012.38
2019-03-25T01:40:43.912Z,1012.36
2019-03-25T01:41:43.928Z,1012.31
2019-03-25T01:42:43.895Z,1012.20
2019-03-25T01:43:43.977Z,1012.25
2019-03-25T01:44:43.868Z,1012.10
2019-03-25T01:45:43.959Z,1012.04
2019-03-25T01:46:43.850Z,1012.13
2019-03-25T01:47:43.867Z,1012.10
2019-03-25T01:48:43.839Z,1012.06
2019-03-25T01:49:43.880Z,1012.13
2019-03-25T01:50:43.806Z,1011.97
2019-03-25T01:51:43.894Z,1012.04
2019-03-25T01:52:43.781Z,1012.02
2019-03-25T01:53:45.887Z,1012.00
2019-03-25T01:54:43.758Z,1011.97
2019-03-25T01:55:52.728Z,1011.99
2019-03-25T01:56:43.738Z,1012.03
2019-03-25T01:57:52.743Z,1011.96
2019-03-25T01:58:43.730Z,1011.97
2019-03-25T01:59:43.745Z,1011.95
2019-03-25T02:00:43.693Z,1011.91
2019-03-25T02:01:45.707Z,1011.98
2019-03-25T02:02:43.671Z,1011.94
2019-03-25T02:03:43.703Z,1011.86
2019-03-25T02:04:43.652Z,1011.97
2019-03-25T02:05:43.683Z,1011.94
2019-03-25T02:06:43.626Z,1011.87
2019-03-25T02:07:43.699Z,1011.85
2019-03-25T02:08:43.624Z,1011.92
2019-03-25T02:09:43.609Z,1011.97
2019-03-25T02:10:43.583Z,1011.92
2019-03-25T02:11:43.627Z,1012.01
2019-03-25T02:12:43.563Z,1011.96
2019-03-25T02:13:43.669Z,1012.03
2019-03-25T02:14:43.542Z,1011.95
2019-03-25T02:15:43.547Z,1011.86
2019-03-25T02:16:43.519Z,1012.02
2019-03-25T02:17:43.561Z,1011.97
2019-03-25T02:18:43.511Z,1011.92
2019-03-25T02:19:43.575Z,1012.00
2019-03-25T02:20:43.479Z,1011.92
2019-03-25T02:21:43.486Z,1011.97
2019-03-25T02:22:43.571Z,1011.98
2019-03-25T02:23:43.531Z,1011.94
2019-03-25T02:24:43.433Z,1011.96
2019-03-25T02:25:43.514Z,1011.91
2019-03-25T02:26:43.409Z,1011.89
2019-03-25T02:27:43.426Z,1011.94
2019-03-25T02:28:43.390Z,1011.95
2019-03-25T02:29:43.472Z,1011.91
2019-03-25T02:30:43.422Z,1011.96
2019-03-25T02:31:43.453Z,1011.83
2019-03-25T02:32:43.349Z,1011.91
2019-03-25T02:33:43.364Z,1012.00
2019-03-25T02:34:43.341Z,1011.98
2019-03-25T02:35:43.378Z,1011.92
2019-03-25T02:36:43.306Z,1011.90
2019-03-25T02:37:43.391Z,1011.86
2019-03-25T02:38:43.281Z,1011.89
2019-03-25T02:39:45.382Z,1011.89
2019-03-25T02:40:43.257Z,1011.82
2019-03-25T02:41:51.314Z,1011.76
2019-03-25T02:42:43.244Z,1011.76
2019-03-25T02:43:52.244Z,1011.72
2019-03-25T02:44:43.228Z,1011.70
2019-03-25T02:45:43.243Z,1011.69
2019-03-25T02:46:43.199Z,1011.67
2019-03-25T02:47:45.205Z,1011.71
2019-03-25T02:48:43.175Z,1011.69
2019-03-25T02:49:43.198Z,1011.74
2019-03-25T02:50:43.148Z,1011.73
2019-03-25T02:51:43.181Z,1011.75
2019-03-25T02:52:43.127Z,1011.77
2019-03-25T02:53:43.194Z,1011.73
2019-03-25T02:54:43.124Z,1011.73
2019-03-25T02:55:43.105Z,1011.74
2019-03-25T02:56:43.083Z,1011.77
2019-03-25T02:57:43.176Z,1011.75
2019-03-25T02:58:43.062Z,1011.75
2019-03-25T02:59:43.164Z,1011.79
2019-03-25T03:00:43.043Z,1011.84
2019-03-25T03:01:43.044Z,1011.72
2019-03-25T03:02:43.016Z,1011.78
2019-03-25T03:03:43.058Z,1011.79
2019-03-25T03:04:43.012Z,1011.81
2019-03-25T03:05:43.073Z,1011.81
2019-03-25T03:06:42.973Z,1011.83
2019-03-25T03:07:43.095Z,1011.90
2019-03-25T03:08:42.951Z,1011.93
2019-03-25T03:09:43.029Z,1011.90
2019-03-25T03:10:42.938Z,1011.82
2019-03-25T03:11:43.013Z,1011.84
2019-03-25T03:12:42.909Z,1011.92
2019-03-25T03:13:42.924Z,1011.93
2019-03-25T03:14:42.898Z,1011.90
2019-03-25T03:15:42.941Z,1011.93
2019-03-25T03:16:42.868Z,1011.84
2019-03-25T03:17:42.952Z,1011.93
2019-03-25T03:18:42.843Z,1011.94
2019-03-25T03:19:42.891Z,1011.87
2019-03-25T03:20:42.915Z,1011.87
2019-03-25T03:21:42.878Z,1011.92
2019-03-25T03:22:42.799Z,1011.89
2019-03-25T03:23:42.888Z,1011.93
2019-03-25T03:24:42.791Z,1011.95
2019-03-25T03:25:56.502Z,1011.98
2019-03-25T03:26:43.757Z,1012.07
2019-03-25T03:27:49.776Z,1012.05
2019-03-25T03:28:42.742Z,1012.02
2019-03-25T03:29:42.760Z,1012.00
2019-03-25T03:30:42.724Z,1012.01
2019-03-25T03:31:42.739Z,1012.02
2019-03-25T03:32:42.693Z,1011.95
2019-03-25T03:33:44.700Z,1011.94
2019-03-25T03:34:42.670Z,1011.99
2019-03-25T03:35:46.226Z,1012.04
2019-03-25T03:36:42.645Z,1012.00
2019-03-25T03:37:42.685Z,1011.99
2019-03-25T03:38:42.628Z,1011.96
2019-03-25T03:39:42.693Z,1011.96
2019-03-25T03:40:42.615Z,1011.99
2019-03-25T03:41:42.608Z,1011.93
2019-03-25T03:42:42.588Z,1011.96
2019-03-25T03:43:42.617Z,1012.09
2019-03-25T03:44:42.559Z,1012.02
2019-03-25T03:45:42.660Z,1012.05
2019-03-25T03:46:42.535Z,1012.05
2019-03-25T03:47:42.553Z,1012.01
2019-03-25T03:48:42.515Z,1012.10
2019-03-25T03:49:42.556Z,1012.11
2019-03-25T03:50:42.505Z,1012.16
2019-03-25T03:51:42.603Z,1012.14
2019-03-25T03:52:42.474Z,1012.13
2019-03-25T03:53:42.480Z,1012.13
2019-03-25T03:54:42.455Z,1012.10
2019-03-25T03:55:42.522Z,1012.04
2019-03-25T03:56:42.425Z,1012.07
2019-03-25T03:57:42.510Z,1012.06
2019-03-25T03:58:42.405Z,1012.03
2019-03-25T03:59:42.423Z,1011.95
2019-03-25T04:00:42.396Z,1012.01
2019-03-25T04:01:42.433Z,1011.98
2019-03-25T04:02:42.365Z,1011.97
2019-03-25T04:03:42.447Z,1011.91
2019-03-25T04:04:42.353Z,1011.93
2019-03-25T04:05:42.395Z,1011.80
2019-03-25T04:06:42.319Z,1011.86
2019-03-25T04:07:42.373Z,1011.89
2019-03-25T04:08:42.301Z,1011.86
2019-03-25T04:09:42.449Z,1011.87
2019-03-25T04:10:42.289Z,1011.97
2019-03-25T04:11:42.297Z,1011.98
2019-03-25T04:12:42.254Z,1011.95
2019-03-25T04:14:42.232Z,1011.86
2019-03-25T04:15:42.258Z,1011.85
2019-03-25T04:16:42.212Z,1011.96
2019-03-25T04:17:42.242Z,1011.88
2019-03-25T04:18:42.269Z,1011.96
2019-03-25T04:19:44.196Z,1011.87
2019-03-25T04:20:42.188Z,1011.91
2019-03-25T04:21:43.184Z,1011.94
2019-03-25T04:22:42.144Z,1011.98
2019-03-25T04:23:42.173Z,1011.93
2019-03-25T04:24:42.129Z,1011.93
2019-03-25T04:25:42.220Z,1011.90
2019-03-25T04:26:42.104Z,1011.94
2019-03-25T04:27:42.202Z,1011.98
2019-03-25T04:28:42.078Z,1011.84
2019-03-25T04:29:42.115Z,1011.89
2019-03-25T04:30:42.072Z,1011.86
2019-03-25T04:31:42.131Z,1011.97
2019-03-25T04:32:42.033Z,1011.99
2019-03-25T04:33:42.042Z,1011.97
2019-03-25T04:34:42.013Z,1011.95
2019-03-25T04:35:42.082Z,1011.97
2019-03-25T04:36:41.991Z,1011.97
2019-03-25T04:37:42.066Z,1011.94
2019-03-25T04:38:41.968Z,1011.93
2019-03-25T04:39:41.979Z,1011.90
2019-03-25T04:40:42.001Z,1011.90
2019-03-25T04:41:41.991Z,1011.84
2019-03-25T04:42:41.926Z,1011.87
2019-03-25T04:43:42.003Z,1011.88
2019-03-25T04:44:41.902Z,1011.90
2019-03-25T04:45:41.945Z,1011.91
2019-03-25T04:46:41.881Z,1011.84
2019-03-25T04:47:41.928Z,1011.84
2019-03-25T04:48:41.863Z,1011.94
2019-03-25T04:49:41.944Z,1011.91
2019-03-25T04:50:41.855Z,1011.91
2019-03-25T04:51:41.853Z,1011.93
2019-03-25T04:52:41.821Z,1011.86
2019-03-25T04:53:41.869Z,1011.91
2019-03-25T04:54:41.795Z,1011.93
2019-03-25T04:55:41.803Z,1011.84
2019-03-25T04:56:41.771Z,1011.75
2019-03-25T04:57:41.793Z,1011.77
2019-03-25T04:58:41.752Z,1011.77
2019-03-25T04:59:43.855Z,1011.79
2019-03-25T05:00:41.741Z,1011.79
2019-03-25T05:01:48.851Z,1011.70
2019-03-25T05:02:41.710Z,1011.81
2019-03-25T05:03:41.731Z,1011.82
2019-03-25T05:04:41.686Z,1011.76
2019-03-25T05:05:43.723Z,1011.71
2019-03-25T05:06:41.669Z,1011.73
2019-03-25T05:07:42.681Z,1011.77
2019-03-25T05:08:41.640Z,1011.73
2019-03-25T05:09:41.671Z,1011.75
2019-03-25T05:10:41.632Z,1011.71
2019-03-25T05:11:41.683Z,1011.76
2019-03-25T05:12:41.599Z,1011.73
2019-03-25T05:13:41.697Z,1011.71
2019-03-25T05:14:41.577Z,1011.77
2019-03-25T05:15:41.640Z,1011.72
2019-03-25T05:16:41.553Z,1011.72
2019-03-25T05:17:41.623Z,1011.73
2019-03-25T05:18:41.536Z,1011.75
2019-03-25T05:19:41.533Z,1011.69
2019-03-25T05:20:41.524Z,1011.72
2019-03-25T05:21:41.554Z,1011.67
2019-03-25T05:22:41.503Z,1011.71
2019-03-25T05:23:41.570Z,1011.70
2019-03-25T05:24:41.468Z,1011.71
2019-03-25T05:25:41.504Z,1011.73
2019-03-25T05:26:50.481Z,1011.72
2019-03-25T05:27:42.432Z,1011.68
2019-03-25T05:28:41.493Z,1011.67
2019-03-25T05:29:41.412Z,1011.69
2019-03-25T05:30:41.506Z,1011.64
2019-03-25T05:31:41.403Z,1011.76
2019-03-25T05:32:41.418Z,1011.71
2019-03-25T05:33:41.370Z,1011.71
2019-03-25T05:34:41.437Z,1011.73
2019-03-25T05:35:41.347Z,1011.68
2019-03-25T05:36:41.376Z,1011.62
2019-03-25T05:37:41.325Z,1011.66
2019-03-25T05:38:41.357Z,1011.60
2019-03-25T05:39:41.300Z,1011.65
2019-03-25T05:40:41.383Z,1011.67
2019-03-25T05:41:41.295Z,1011.68
2019-03-25T05:42:41.282Z,1011.59
2019-03-25T05:43:41.257Z,1011.59
2019-03-25T05:44:42.324Z,1011.60
2019-03-25T05:45:41.245Z,1011.56
2019-03-25T05:46:42.262Z,1011.57
2019-03-25T05:47:41.221Z,1011.57
2019-03-25T05:48:41.239Z,1011.55
2019-03-25T05:49:41.191Z,1011.55
2019-03-25T05:50:48.826Z,1011.59
2019-03-25T05:51:41.188Z,1011.54
2019-03-25T05:52:42.189Z,1011.55
2019-03-25T05:53:41.150Z,1011.53
2019-03-25T05:54:41.163Z,1011.59
2019-03-25T05:55:41.126Z,1011.57
2019-03-25T05:56:41.204Z,1011.47
2019-03-25T05:57:41.103Z,1011.47
2019-03-25T05:58:41.192Z,1011.50
2019-03-25T05:59:41.084Z,1011.42
2019-03-25T06:00:41.106Z,1011.44
2019-03-25T06:01:41.073Z,1011.43
2019-03-25T06:02:41.120Z,1011.41
2019-03-25T06:03:41.045Z,1011.48
2019-03-25T06:04:41.130Z,1011.41
2019-03-25T06:05:41.016Z,1011.34
2019-03-25T06:06:41.073Z,1011.38
2019-03-25T06:07:40.993Z,1011.36
2019-03-25T06:08:41.068Z,1011.34
2019-03-25T06:09:40.975Z,1011.31
2019-03-25T06:10:41.069Z,1011.36
2019-03-25T06:11:40.963Z,1011.31
2019-03-25T06:12:42.491Z,1011.31
2019-03-25T06:13:40.931Z,1011.32
2019-03-25T06:14:40.998Z,1011.38
2019-03-25T06:15:40.907Z,1011.27
2019-03-25T06:16:40.932Z,1011.35
2019-03-25T06:17:40.884Z,1011.35
2019-03-25T06:18:40.919Z,1011.21
2019-03-25T06:19:40.864Z,1011.27
2019-03-25T06:20:40.938Z,1011.26
2019-03-25T06:21:40.851Z,1011.31
2019-03-25T06:22:40.946Z,1011.19
2019-03-25T06:23:40.822Z,1011.22
2019-03-25T06:24:40.860Z,1011.17
2019-03-25T06:25:40.797Z,1011.17
2019-03-25T06:26:40.906Z,1011.20
2019-03-25T06:27:40.781Z,1011.20
2019-03-25T06:28:40.783Z,1011.22
2019-03-25T06:29:40.760Z,1011.24
2019-03-25T06:30:42.844Z,1011.22
2019-03-25T06:31:40.746Z,1011.28
2019-03-25T06:32:48.811Z,1011.30
2019-03-25T06:33:40.714Z,1011.19
2019-03-25T06:34:40.728Z,1011.23
2019-03-25T06:35:40.691Z,1011.33
2019-03-25T06:36:40.760Z,1011.33
2019-03-25T06:37:40.672Z,1011.37
2019-03-25T06:38:42.698Z,1011.26
2019-03-25T06:39:40.646Z,1011.09
2019-03-25T06:40:40.663Z,1011.06
2019-03-25T06:41:40.637Z,1011.13
2019-03-25T06:42:40.674Z,1011.16
2019-03-25T06:43:40.603Z,1011.07
2019-03-25T06:44:40.706Z,1011.17
2019-03-25T06:45:40.582Z,1011.20
2019-03-25T06:46:40.646Z,1011.15
2019-03-25T06:47:40.562Z,1011.12
2019-03-25T06:48:40.614Z,1011.19
2019-03-25T06:49:40.537Z,1011.20
2019-03-25T06:50:40.629Z,1011.14
2019-03-25T06:51:40.536Z,1011.11
2019-03-25T06:52:40.542Z,1011.12
2019-03-25T06:53:40.496Z,1011.19
2019-03-25T06:54:40.550Z,1011.08
2019-03-25T06:55:40.470Z,1011.09
2019-03-25T06:56:40.506Z,1011.03
2019-03-25T06:57:40.453Z,1011.10
2019-03-25T06:58:40.481Z,1011.11
2019-03-25T06:59:40.433Z,1011.14
2019-03-25T07:00:40.499Z,1011.23
2019-03-25T07:01:40.418Z,1011.25
2019-03-25T07:02:40.512Z,1011.20
2019-03-25T07:03:40.383Z,1011.22
2019-03-25T07:04:40.423Z,1011.16
2019-03-25T07:05:40.360Z,1011.28
2019-03-25T07:06:40.469Z,1011.30
2019-03-25T07:07:40.347Z,1011.28
2019-03-25T07:08:40.450Z,1011.15
2019-03-25T07:09:40.319Z,1011.22
2019-03-25T07:10:40.357Z,1011.22
2019-03-25T07:11:40.326Z,1011.21
2019-03-25T07:12:40.389Z,1011.28
2019-03-25T07:13:40.276Z,1011.24
2019-03-25T07:14:40.292Z,1011.22
2019-03-25T07:15:40.249Z,1011.24
2019-03-25T07:16:42.358Z,1011.31
2019-03-25T07:17:40.246Z,1011.33
2019-03-25T07:18:40.317Z,1011.30
2019-03-25T07:19:40.212Z,1011.32
2019-03-25T07:20:40.231Z,1011.32
2019-03-25T07:21:40.184Z,1011.31
2019-03-25T07:22:40.266Z,1011.35
2019-03-25T07:23:40.167Z,1011.37
2019-03-25T07:24:42.196Z,1011.37
2019-03-25T07:25:40.162Z,1011.33
2019-03-25T07:26:40.185Z,1011.29
2019-03-25T07:27:40.145Z,1011.28
2019-03-25T07:28:40.174Z,1011.33
2019-03-25T07:29:40.096Z,1011.26
2019-03-25T07:30:40.201Z,1011.26
2019-03-25T07:31:40.073Z,1011.24
2019-03-25T07:32:40.126Z,1011.29
2019-03-25T07:33:40.055Z,1011.25
2019-03-25T07:34:41.288Z,1011.22
2019-03-25T07:35:40.033Z,1011.15
2019-03-25T07:36:40.126Z,1011.10
2019-03-25T07:37:40.027Z,1011.21
2019-03-25T07:38:40.036Z,1011.30
2019-03-25T07:39:39.988Z,1011.30
2019-03-25T07:40:40.050Z,1011.29
2019-03-25T07:41:39.966Z,1011.25
2019-03-25T07:42:39.990Z,1011.20
2019-03-25T07:43:39.951Z,1011.31
2019-03-25T07:44:39.975Z,1011.22
2019-03-25T07:45:39.920Z,1011.20
2019-03-25T07:46:39.984Z,1011.27
2019-03-25T07:47:39.910Z,1011.17
2019-03-25T07:48:40.002Z,1011.20
2019-03-25T07:49:39.877Z,1011.13
2019-03-25T07:50:39.911Z,1011.14
2019-03-25T07:51:39.853Z,1011.09
2019-03-25T07:52:39.977Z,1011.13
2019-03-25T07:53:39.834Z,1011.17
2019-03-25T07:54:39.832Z,1011.22
2019-03-25T07:55:39.814Z,1011.20
2019-03-25T07:56:39.808Z,1011.23
2019-03-25T07:57:48.054Z,1011.22
2019-03-25T07:58:40.793Z,1011.20
2019-03-25T07:59:39.772Z,1011.18
2019-03-25T08:00:39.766Z,1011.13
2019-03-25T08:01:39.780Z,1011.13
2019-03-25T08:02:39.748Z,1011.17
2019-03-25T08:03:39.731Z,1011.10
2019-03-25T08:04:39.742Z,1011.19
2019-03-25T08:05:39.710Z,1011.23
2019-03-25T08:06:39.694Z,1011.19
2019-03-25T08:07:42.614Z,1011.12
2019-03-25T08:08:41.249Z,1011.16
2019-03-25T08:09:39.671Z,1011.08
2019-03-25T08:10:56.250Z,1011.11
2019-03-25T08:11:39.653Z,1011.17
2019-03-25T08:12:39.665Z,1011.09
2019-03-25T08:13:39.615Z,1011.11
2019-03-25T08:14:39.608Z,1011.14
2019-03-25T08:15:39.632Z,1011.08
2019-03-25T08:16:39.590Z,1011.11
2019-03-25T08:17:39.595Z,1011.06
2019-03-25T08:18:39.563Z,1011.16
2019-03-25T08:19:39.550Z,1011.07
2019-03-25T08:20:39.547Z,1011.02
2019-03-25T08:21:39.524Z,1011.10
2019-03-25T08:22:39.538Z,1010.97
2019-03-25T08:23:39.504Z,1011.03
2019-03-25T08:24:39.498Z,1011.05
2019-03-25T08:25:39.481Z,1010.99
2019-03-25T08:26:39.475Z,1011.00
2019-03-25T08:27:39.476Z,1010.97
2019-03-25T08:28:39.464Z,1011.00
2019-03-25T08:29:39.442Z,1011.01
2019-03-25T08:30:39.433Z,1011.00
2019-03-25T08:31:39.416Z,1010.97
2019-03-25T08:32:39.425Z,1011.00
2019-03-25T08:33:39.405Z,1011.02
2019-03-25T08:34:39.394Z,1011.16
2019-03-25T08:35:39.374Z,1011.14
2019-03-25T08:36:39.369Z,1011.10
2019-03-25T08:37:39.369Z,1011.07
2019-03-25T08:38:39.349Z,1011.13
2019-03-25T08:39:39.332Z,1011.11
2019-03-25T08:40:39.331Z,1011.19
2019-03-25T08:41:39.315Z,1011.14
2019-03-25T08:42:39.315Z,1011.25
2019-03-25T08:43:39.297Z,1011.24
2019-03-25T08:44:39.282Z,1011.21
2019-03-25T08:45:39.269Z,1011.29
2019-03-25T08:46:39.266Z,1011.35
2019-03-25T08:47:39.348Z,1011.32
2019-03-25T08:48:39.243Z,1011.37
2019-03-25T08:49:39.231Z,1011.26
2019-03-25T08:50:39.217Z,1011.44
2019-03-25T08:51:39.209Z,1011.41
2019-03-25T08:52:39.192Z,1011.42
2019-03-25T08:53:39.190Z,1011.51
2019-03-25T08:54:39.171Z,1011.49
2019-03-25T08:55:39.156Z,1011.40
2019-03-25T08:56:39.157Z,1011.55
2019-03-25T08:57:39.134Z,1011.65
2019-03-25T08:58:39.143Z,1011.68
2019-03-25T08:59:39.109Z,1011.76
2019-03-25T09:00:39.103Z,1011.79
2019-03-25T09:01:39.100Z,1011.64
2019-03-25T09:02:39.085Z,1011.76
2019-03-25T09:03:39.079Z,1011.78
2019-03-25T09:04:39.069Z,1011.73
2019-03-25T09:05:39.046Z,1011.81
2019-03-25T09:06:39.037Z,1011.79
2019-03-25T09:07:39.021Z,1011.72
2019-03-25T09:08:39.028Z,1011.82
2019-03-25T09:09:39.000Z,1011.87
2019-03-25T09:10:38.995Z,1011.80
2019-03-25T09:11:38.978Z,1011.87
2019-03-25T09:12:38.973Z,1011.87
2019-03-25T09:13:38.970Z,1011.80
2019-03-25T09:14:38.949Z,1011.90
2019-03-25T09:15:38.933Z,1011.86
2019-03-25T09:16:38.926Z,1011.82
2019-03-25T09:17:38.917Z,1011.98
2019-03-25T09:18:38.918Z,1012.06
2019-03-25T09:19:38.915Z,1011.97
2019-03-25T09:20:38.887Z,1012.13
2019-03-25T09:21:38.864Z,1012.05
2019-03-25T09:22:38.857Z,1011.76
2019-03-25T09:23:38.855Z,1011.91
2019-03-25T09:24:38.836Z,1011.96
2019-03-25T09:25:38.822Z,1011.94
2019-03-25T09:26:38.823Z,1011.96
2019-03-25T09:27:38.799Z,1011.97
2019-03-25T09:28:38.806Z,1012.06
2019-03-25T09:29:38.776Z,1012.00
2019-03-25T09:30:38.770Z,1012.08
2019-03-25T09:31:38.763Z,1012.12
2019-03-25T09:32:38.746Z,1012.14
2019-03-25T09:33:38.744Z,1012.09
2019-03-25T09:34:38.724Z,1012.46
2019-03-25T09:35:38.709Z,1012.11
2019-03-25T09:36:38.701Z,1012.27
2019-03-25T09:37:38.695Z,1012.39
2019-03-25T09:38:38.711Z,1012.38
2019-03-25T09:39:38.665Z,1012.48
2019-03-25T09:40:38.660Z,1012.53
2019-03-25T09:41:38.646Z,1012.30
2019-03-25T09:42:38.642Z,1012.36
2019-03-25T09:43:38.634Z,1012.44
2019-03-25T09:44:38.616Z,1012.44
2019-03-25T09:45:38.600Z,1012.45
2019-03-25T09:46:38.591Z,1012.53
2019-03-25T09:47:38.575Z,1012.52
2019-03-25T09:48:38.583Z,1012.55
2019-03-25T09:49:38.599Z,1012.45
2019-03-25T09:50:38.551Z,1012.43
2019-03-25T09:51:38.534Z,1012.33
2019-03-25T09:52:39.051Z,1012.33
2019-03-25T09:53:38.525Z,1012.38
2019-03-25T09:54:38.503Z,1012.68
2019-03-25T09:55:38.487Z,1012.62
2019-03-25T09:56:38.490Z,1012.54
2019-03-25T09:57:38.471Z,1012.43
2019-03-25T09:58:38.472Z,1012.50
2019-03-25T09:59:38.443Z,1012.50
2019-03-25T10:00:38.448Z,1012.63
2019-03-25T10:01:38.417Z,1012.50
2019-03-25T10:02:38.415Z,1012.56
2019-03-25T10:03:38.409Z,1012.56
2019-03-25T10:04:38.389Z,1012.62
2019-03-25T10:05:38.375Z,1012.71
2019-03-25T10:06:38.373Z,1012.74
2019-03-25T10:07:38.352Z,1012.83
2019-03-25T10:08:38.365Z,1012.83
2019-03-25T10:09:38.335Z,1012.96
2019-03-25T10:10:38.323Z,1012.87
2019-03-25T10:11:38.322Z,1012.85
2019-03-25T10:12:38.301Z,1013.12
2019-03-25T10:13:38.287Z,1013.13
2019-03-25T10:14:38.304Z,1013.09
2019-03-25T10:15:38.285Z,1013.17
2019-03-25T10:16:38.295Z,1013.20
2019-03-25T10:17:38.265Z,1013.08
2019-03-25T10:18:39.240Z,1013.24
2019-03-25T10:19:39.200Z,1013.07
2019-03-25T10:20:39.215Z,1012.87
2019-03-25T10:21:38.242Z,1012.90
2019-03-25T10:22:39.191Z,1012.95
2019-03-25T10:23:38.175Z,1012.99
2019-03-25T10:24:38.274Z,1013.07
2019-03-25T10:25:38.152Z,1012.98
2019-03-25T10:26:38.265Z,1013.07
2019-03-25T10:27:38.130Z,1013.15
2019-03-25T10:28:48.013Z,1013.15
2019-03-25T10:29:39.119Z,1013.23
2019-03-25T10:30:38.158Z,1013.26
2019-03-25T10:31:38.088Z,1013.30
2019-03-25T10:32:38.160Z,1013.33
2019-03-25T10:33:38.066Z,1013.34
2019-03-25T10:34:38.107Z,1013.41
2019-03-25T10:35:38.047Z,1013.47
2019-03-25T10:36:38.085Z,1013.59
2019-03-25T10:37:38.023Z,1013.44
2019-03-25T10:38:38.019Z,1013.38
2019-03-25T10:39:38.009Z,1013.37
2019-03-25T10:40:38.017Z,1013.52
2019-03-25T10:41:38.539Z,1013.50
2019-03-25T10:42:38.024Z,1013.59
2019-03-25T10:43:37.955Z,1013.64
2019-03-25T10:44:38.078Z,1013.65
2019-03-25T10:45:38.075Z,1013.74
2019-03-25T10:46:37.947Z,1013.58
2019-03-25T10:47:37.908Z,1013.68
2019-03-25T10:48:37.969Z,1013.76
2019-03-25T10:49:37.901Z,1013.81
2019-03-25T10:50:37.980Z,1013.54
2019-03-25T10:51:37.873Z,1013.45
2019-03-25T10:52:37.889Z,1013.90
2019-03-25T10:53:37.841Z,1013.83
2019-03-25T10:54:37.984Z,1013.75
2019-03-25T10:55:37.821Z,1013.82
2019-03-25T10:56:37.913Z,1013.71
2019-03-25T10:57:37.805Z,1013.81
2019-03-25T10:58:37.838Z,1013.78
2019-03-25T10:59:37.786Z,1013.79
2019-03-25T11:00:37.844Z,1013.75
2019-03-25T11:01:37.753Z,1013.71
2019-03-25T11:02:37.857Z,1013.77
2019-03-25T11:03:37.731Z,1013.66
2019-03-25T11:04:37.791Z,1013.62
2019-03-25T11:05:37.712Z,1013.62
2019-03-25T11:06:37.779Z,1013.73
2019-03-25T11:07:37.830Z,1013.69
2019-03-25T11:08:37.691Z,1013.46
2019-03-25T11:09:37.733Z,1013.65
2019-03-25T11:10:37.700Z,1013.55
2019-03-25T11:11:37.638Z,1013.46
2019-03-25T11:12:37.714Z,1013.55
2019-03-25T11:13:37.615Z,1013.50
2019-03-25T11:14:37.654Z,1013.28
2019-03-25T11:15:37.594Z,1013.43
2019-03-25T11:16:37.638Z,1013.48
2019-03-25T11:17:37.573Z,1013.54
2019-03-25T11:18:37.652Z,1013.51
2019-03-25T11:19:37.558Z,1013.57
2019-03-25T11:20:37.564Z,1013.60
2019-03-25T11:21:37.527Z,1013.78
2019-03-25T11:22:37.588Z,1013.87
2019-03-25T11:23:37.505Z,1014.04
2019-03-25T11:24:37.625Z,1013.91
2019-03-25T11:25:37.482Z,1014.10
2019-03-25T11:26:37.510Z,1014.01
2019-03-25T11:27:37.464Z,1013.96
2019-03-25T11:28:37.517Z,1014.00
2019-03-25T11:29:37.450Z,1013.91
2019-03-25T11:30:37.531Z,1014.10
2019-03-25T11:31:37.425Z,1013.92
2019-03-25T11:32:37.445Z,1014.04
2019-03-25T11:33:37.396Z,1014.22
2019-03-25T11:34:37.484Z,1014.31
2019-03-25T11:35:37.381Z,1014.24
2019-03-25T11:36:37.468Z,1014.16
2019-03-25T11:37:37.370Z,1014.11
2019-03-25T11:38:37.380Z,1014.18
2019-03-25T11:39:37.332Z,1014.24
2019-03-25T11:40:37.425Z,1014.25
2019-03-25T11:41:37.311Z,1014.23
2019-03-25T11:42:37.530Z,1014.19
2019-03-25T11:43:37.285Z,1014.22
2019-03-25T11:44:37.318Z,1014.13
2019-03-25T11:45:37.274Z,1014.16
2019-03-25T11:46:37.470Z,1014.17
2019-03-25T11:47:37.315Z,1014.11
2019-03-25T11:48:37.242Z,1014.02
2019-03-25T11:49:37.216Z,1014.08
2019-03-25T11:50:37.472Z,1014.07
2019-03-25T11:51:37.192Z,1013.89
2019-03-25T11:52:37.271Z,1014.04
2019-03-25T11:53:37.173Z,1014.05
2019-03-25T11:54:37.185Z,1014.07
2019-03-25T11:55:37.162Z,1014.01
2019-03-25T11:56:37.199Z,1014.02
2019-03-25T11:57:37.127Z,1014.07
2019-03-25T11:58:37.211Z,1013.96
2019-03-25T11:59:37.103Z,1014.00
2019-03-25T12:00:37.153Z,1013.93
2019-03-25T12:01:37.083Z,1014.03
2019-03-25T12:02:37.134Z,1013.91
2019-03-25T12:03:37.060Z,1014.04
2019-03-25T12:04:37.150Z,1014.02
2019-03-25T12:05:37.054Z,1013.88
2019-03-25T12:06:37.064Z,1013.86